createdAt,value
2022-08-21T00:00:44.247Z,100977.19
2022-08-21T00:03:16.633Z,100973.72
2022-08-21T00:05:50.855Z,100968.47
2022-08-21T00:08:22.320Z,100966.78
2022-08-21T00:10:53.679Z,100969.56
2022-08-21T00:13:25.864Z,100968.72
2022-08-21T00:15:57.625Z,100964.38
2022-08-21T00:18:29.036Z,100956.53
2022-08-21T00:21:00.484Z,100957.53
2022-08-21T00:23:34.368Z,100960.19
2022-08-21T00:26:05.936Z,100967.34
2022-08-21T00:28:37.364Z,100956.75
2022-08-21T00:31:08.723Z,100959.53
2022-08-21T00:33:40.055Z,100963.06
2022-08-21T00:36:12.325Z,100955.09
2022-08-21T00:38:43.707Z,100946.25
2022-08-21T00:41:36.777Z,100952.53
2022-08-21T00:44:09.097Z,100941.06
2022-08-21T00:46:42.783Z,100950.88
2022-08-21T00:49:14.406Z,100948.25
2022-08-21T00:51:59.368Z,100952.69
2022-08-21T00:54:32.109Z,100950.13
2022-08-21T00:57:11.609Z,100944.03
2022-08-21T00:59:46.275Z,100947.56
2022-08-21T01:02:19.456Z,100948.53
2022-08-21T01:04:50.954Z,100953.03
2022-08-21T01:07:22.396Z,100947.03
2022-08-21T01:09:55.661Z,100951.31
2022-08-21T01:12:27.686Z,100956.69
2022-08-21T01:14:59.648Z,100959.44
2022-08-21T01:17:32.244Z,100951.50
2022-08-21T01:20:08.493Z,100956.84
2022-08-21T01:22:40.040Z,100950.66
2022-08-21T01:25:16.036Z,100951.59
2022-08-21T01:27:47.861Z,100950.75
2022-08-21T01:30:23.927Z,100948.13
2022-08-21T01:32:56.956Z,100948.19
2022-08-21T01:35:28.349Z,100954.41
2022-08-21T01:37:59.749Z,100931.69
2022-08-21T01:40:31.076Z,100945.59
2022-08-21T01:43:03.244Z,100944.78
2022-08-21T01:45:34.573Z,100945.66
2022-08-21T01:48:05.937Z,100943.94
2022-08-21T01:50:37.342Z,100950.19
2022-08-21T01:53:08.861Z,100949.25
2022-08-21T01:55:40.192Z,100936.09
2022-08-21T01:58:11.686Z,100943.09
2022-08-21T02:00:43.809Z,100935.19
2022-08-21T02:03:15.125Z,100926.41
2022-08-21T02:06:03.456Z,100924.66
2022-08-21T02:08:35.363Z,100919.34
2022-08-21T02:11:06.865Z,100921.16
2022-08-21T02:13:38.224Z,100931.75
2022-08-21T02:16:12.534Z,100919.34
2022-08-21T02:18:48.686Z,100930.91
2022-08-21T02:21:20.173Z,100932.75
2022-08-21T02:23:51.528Z,100921.28
2022-08-21T02:26:22.994Z,100923.00
2022-08-21T02:28:54.499Z,100923.91
2022-08-21T02:31:25.860Z,100923.94
2022-08-21T02:33:57.167Z,100920.44
2022-08-21T02:36:28.668Z,100927.53
2022-08-21T02:39:00.302Z,100915.25
2022-08-21T02:41:32.575Z,100919.53
2022-08-21T02:44:04.040Z,100920.47
2022-08-21T02:46:35.408Z,100924.03
2022-08-21T02:49:06.738Z,100923.19
2022-08-21T02:51:38.029Z,100919.69
2022-08-21T02:54:09.497Z,100922.34
2022-08-21T02:56:40.806Z,100913.50
2022-08-21T02:59:12.291Z,100910.00
2022-08-21T03:01:43.790Z,100918.91
2022-08-21T03:04:15.404Z,100911.88
2022-08-21T03:06:46.706Z,100906.59
2022-08-21T03:09:18.010Z,100904.84
2022-08-21T03:11:49.305Z,100900.41
2022-08-21T03:14:20.597Z,100898.66
2022-08-21T03:16:51.937Z,100897.81
2022-08-21T03:19:23.243Z,100900.56
2022-08-21T03:21:54.573Z,100910.31
2022-08-21T03:24:26.260Z,100886.66
2022-08-21T03:26:57.866Z,100898.84
2022-08-21T03:29:29.185Z,100905.13
2022-08-21T03:32:00.498Z,100890.09
2022-08-21T03:34:31.801Z,100900.78
2022-08-21T03:37:04.948Z,100896.41
2022-08-21T03:39:36.397Z,100897.31
2022-08-21T03:42:07.767Z,100903.59
2022-08-21T03:44:40.526Z,100889.50
2022-08-21T03:47:11.873Z,100903.63
2022-08-21T03:49:43.220Z,100905.41
2022-08-21T03:52:14.606Z,100895.78
2022-08-21T03:54:46.294Z,100899.31
2022-08-21T03:57:18.425Z,100905.53
2022-08-21T03:59:50.213Z,100913.53
2022-08-21T04:02:22.061Z,100904.75
2022-08-21T04:04:53.522Z,100907.38
2022-08-21T04:07:24.835Z,100903.88
2022-08-21T04:09:56.137Z,100897.66
2022-08-21T04:12:27.433Z,100907.44
2022-08-21T04:14:59.125Z,100902.13
2022-08-21T04:17:30.425Z,100910.13
2022-08-21T04:20:01.715Z,100907.59
2022-08-21T04:22:33.010Z,100909.25
2022-08-21T04:25:04.768Z,100907.50
2022-08-21T04:27:36.144Z,100911.09
2022-08-21T04:30:09.944Z,100910.25
2022-08-21T04:32:47.665Z,100913.81
2022-08-21T04:35:23.358Z,100908.53
2022-08-21T04:37:54.795Z,100917.34
2022-08-21T04:40:28.253Z,100921.78
2022-08-21T04:43:04.506Z,100918.13
2022-08-21T04:45:40.548Z,100918.03
2022-08-21T04:48:14.462Z,100919.78
2022-08-21T04:51:10.368Z,100925.78
2022-08-21T04:53:51.456Z,100913.00
2022-08-21T04:56:32.219Z,100921.47
2022-08-21T04:59:12.085Z,100920.19
2022-08-21T05:01:45.711Z,100915.34
2022-08-21T05:04:21.987Z,100922.84
2022-08-21T05:06:57.729Z,100920.63
2022-08-21T05:09:31.110Z,100921.94
2022-08-21T05:12:03.680Z,100916.28
2022-08-21T05:14:35.046Z,100910.66
2022-08-21T05:17:06.610Z,100928.06
2022-08-21T05:19:37.993Z,100919.97
2022-08-21T05:22:10.212Z,100930.22
2022-08-21T05:24:41.501Z,100927.47
2022-08-21T05:27:12.786Z,100932.44
2022-08-21T05:29:49.156Z,100925.03
2022-08-21T05:32:21.883Z,100926.22
2022-08-21T05:34:53.194Z,100928.44
2022-08-21T05:37:24.531Z,100934.03
2022-08-21T05:40:20.346Z,100933.47
2022-08-21T05:42:54.431Z,100934.81
2022-08-21T05:45:41.781Z,100937.81
2022-08-21T05:48:23.674Z,100940.03
2022-08-21T05:50:55.210Z,100944.00
2022-08-21T05:53:26.522Z,100941.66
2022-08-21T05:55:57.917Z,100939.16
2022-08-21T05:58:29.209Z,100943.13
2022-08-21T06:01:03.167Z,100933.66
2022-08-21T06:03:38.465Z,100940.22
2022-08-21T06:06:10.721Z,100943.41
2022-08-21T06:08:42.477Z,100946.91
2022-08-21T06:11:13.775Z,100948.66
2022-08-21T06:13:45.169Z,100947.72
2022-08-21T06:16:17.570Z,100945.53
2022-08-21T06:18:49.382Z,100943.81
2022-08-21T06:21:20.797Z,100946.13
2022-08-21T06:23:52.106Z,100943.09
2022-08-21T06:26:24.540Z,100946.75
2022-08-21T06:28:55.917Z,100948.22
2022-08-21T06:31:28.681Z,100936.78
2022-08-21T06:34:00.026Z,100937.75
2022-08-21T06:36:31.330Z,100930.81
2022-08-21T06:39:03.123Z,100945.94
2022-08-21T06:41:48.326Z,100942.72
2022-08-21T06:44:19.908Z,100946.88
2022-08-21T06:46:51.228Z,100950.00
2022-08-21T06:49:22.559Z,100936.81
2022-08-21T06:51:54.810Z,100938.59
2022-08-21T06:54:26.133Z,100932.59
2022-08-21T06:56:57.447Z,100921.28
2022-08-21T06:59:28.740Z,100933.38
2022-08-21T07:02:00.853Z,100925.94
2022-08-21T07:04:32.322Z,100933.69
2022-08-21T07:07:03.768Z,100916.38
2022-08-21T07:09:35.078Z,100919.63
2022-08-21T07:12:06.785Z,100913.06
2022-08-21T07:14:38.210Z,100901.13
2022-08-21T07:17:09.545Z,100909.66
2022-08-21T07:19:40.887Z,100903.69
2022-08-21T07:22:13.704Z,100905.28
2022-08-21T07:24:45.005Z,100918.31
2022-08-21T07:27:16.357Z,100912.06
2022-08-21T07:29:47.711Z,100918.22
2022-08-21T07:32:21.380Z,100914.94
2022-08-21T07:34:53.026Z,100914.28
2022-08-21T07:37:24.368Z,100916.25
2022-08-21T07:39:55.807Z,100912.19
2022-08-21T07:42:27.155Z,100918.88
2022-08-21T07:44:58.638Z,100909.50
2022-08-21T07:47:41.662Z,100907.84
2022-08-21T07:50:15.493Z,100905.13
2022-08-21T07:52:47.212Z,100909.75
2022-08-21T07:55:20.973Z,100905.53
2022-08-21T07:57:52.297Z,100907.50
2022-08-21T08:00:25.710Z,100903.78
2022-08-21T08:02:57.787Z,100907.19
2022-08-21T08:05:30.984Z,100903.56
2022-08-21T08:08:02.454Z,100920.50
2022-08-21T08:10:34.089Z,100911.25
2022-08-21T08:13:05.392Z,100909.97
2022-08-21T08:15:42.000Z,100915.81
2022-08-21T08:18:14.722Z,100907.91
2022-08-21T08:20:46.063Z,100898.69
2022-08-21T08:23:17.439Z,100910.59
2022-08-21T08:25:49.065Z,100897.03
2022-08-21T08:28:20.372Z,100905.41
2022-08-21T08:30:52.437Z,100894.25
2022-08-21T08:33:23.756Z,100904.00
2022-08-21T08:35:56.086Z,100896.94
2022-08-21T08:38:27.382Z,100906.25
2022-08-21T08:41:16.690Z,100890.38
2022-08-21T08:43:54.063Z,100891.50
2022-08-21T08:46:40.845Z,100889.88
2022-08-21T08:49:21.558Z,100897.34
2022-08-21T08:52:01.264Z,100893.56
2022-08-21T08:54:40.423Z,100889.41
2022-08-21T08:57:20.820Z,100889.28
2022-08-21T08:59:56.298Z,100885.00
2022-08-21T09:02:30.472Z,100888.84
2022-08-21T09:05:02.169Z,100888.16
2022-08-21T09:07:40.026Z,100886.97
2022-08-21T09:10:20.318Z,100887.72
2022-08-21T09:13:10.843Z,100884.75
2022-08-21T09:16:27.195Z,100879.56
2022-08-21T09:19:28.744Z,100881.28
2022-08-21T09:22:20.058Z,100873.63
2022-08-21T09:25:13.039Z,100878.44
2022-08-21T09:27:44.556Z,100877.59
2022-08-21T09:30:16.681Z,100855.84
2022-08-21T09:32:48.098Z,100875.22
2022-08-21T09:35:22.782Z,100873.38
2022-08-21T09:37:59.984Z,100878.69
2022-08-21T09:40:42.732Z,100881.16
2022-08-21T09:43:19.777Z,100874.88
2022-08-21T09:46:05.602Z,100873.63
2022-08-21T09:48:43.555Z,100876.59
2022-08-21T09:51:21.019Z,100875.84
2022-08-21T09:53:57.557Z,100875.84
2022-08-21T09:56:52.729Z,100865.94
2022-08-21T09:59:36.914Z,100857.31
2022-08-21T10:02:33.586Z,100862.75
2022-08-21T10:05:04.942Z,100871.78
2022-08-21T10:07:38.926Z,100860.53
2022-08-21T10:10:18.030Z,100873.16
2022-08-21T10:13:20.834Z,100858.06
2022-08-21T10:16:12.408Z,100854.31
2022-08-21T10:19:14.683Z,100867.34
2022-08-21T10:22:23.594Z,100858.97
2022-08-21T10:25:13.937Z,100857.59
2022-08-21T10:27:57.353Z,100858.72
2022-08-21T10:31:02.076Z,100867.31
2022-08-21T10:33:41.227Z,100866.16
2022-08-21T10:36:41.430Z,100867.00
2022-08-21T10:39:35.222Z,100870.94
2022-08-21T10:42:17.701Z,100865.59
2022-08-21T10:45:01.072Z,100857.16
2022-08-21T10:47:42.860Z,100856.69
2022-08-21T10:50:26.425Z,100863.50
2022-08-21T10:53:14.169Z,100868.28
2022-08-21T10:55:49.089Z,100862.56
2022-08-21T10:58:29.719Z,100860.44
2022-08-21T11:01:25.215Z,100857.97
2022-08-21T11:04:12.193Z,100862.06
2022-08-21T11:06:54.235Z,100857.13
2022-08-21T11:09:27.254Z,100860.91
2022-08-21T11:12:13.710Z,100854.31
2022-08-21T11:14:56.326Z,100857.63
2022-08-21T11:17:37.691Z,100864.94
2022-08-21T11:20:16.246Z,100864.19
2022-08-21T11:23:00.018Z,100873.19
2022-08-21T11:25:38.040Z,100860.34
2022-08-21T11:28:21.497Z,100855.00
2022-08-21T11:31:23.647Z,100866.78
2022-08-21T11:34:08.522Z,100860.34
2022-08-21T11:37:11.239Z,100865.53
2022-08-21T11:39:49.747Z,100866.91
2022-08-21T11:42:34.851Z,100864.09
2022-08-21T11:45:45.850Z,100870.06
2022-08-21T11:48:51.990Z,100869.13
2022-08-21T11:51:34.534Z,100860.13
2022-08-21T11:54:08.610Z,100867.34
2022-08-21T11:56:44.721Z,100868.53
2022-08-21T11:59:36.527Z,100860.81
2022-08-21T12:02:16.653Z,100865.41
2022-08-21T12:04:59.432Z,100864.66
2022-08-21T12:07:42.474Z,100871.03
2022-08-21T12:10:23.337Z,100858.75
2022-08-21T12:12:54.741Z,100866.69
2022-08-21T12:15:28.682Z,100867.00
2022-08-21T12:18:34.486Z,100864.47
2022-08-21T12:21:23.844Z,100868.59
2022-08-21T12:24:13.856Z,100856.66
2022-08-21T12:27:02.120Z,100864.75
2022-08-21T12:29:38.103Z,100867.84
2022-08-21T12:32:12.145Z,100867.34
2022-08-21T12:34:47.290Z,100869.94
2022-08-21T12:37:30.933Z,100857.13
2022-08-21T12:40:10.664Z,100863.06
2022-08-21T12:42:58.541Z,100857.78
2022-08-21T12:45:44.750Z,100840.50
2022-08-21T12:48:26.014Z,100852.94
2022-08-21T12:51:12.261Z,100855.09
2022-08-21T12:53:51.333Z,100853.59
2022-08-21T12:56:26.225Z,100849.69
2022-08-21T12:59:06.769Z,100854.50
2022-08-21T13:01:51.241Z,100853.47
2022-08-21T13:04:42.249Z,100855.00
2022-08-21T13:07:17.414Z,100846.47
2022-08-21T13:09:55.373Z,100850.34
2022-08-21T13:12:29.573Z,100844.50
2022-08-21T13:15:09.287Z,100839.47
2022-08-21T13:17:47.453Z,100840.72
2022-08-21T13:20:24.892Z,100839.97
2022-08-21T13:22:56.349Z,100837.16
2022-08-21T13:25:31.068Z,100834.03
2022-08-21T13:28:08.118Z,100826.59
2022-08-21T13:30:51.750Z,100834.59
2022-08-21T13:33:37.258Z,100824.72
2022-08-21T13:36:14.854Z,100832.72
2022-08-21T13:38:46.538Z,100829.63
2022-08-21T13:41:28.671Z,100830.38
2022-08-21T13:44:04.514Z,100824.53
2022-08-21T13:46:37.677Z,100815.38
2022-08-21T13:49:10.897Z,100832.44
2022-08-21T13:51:43.024Z,100830.78
2022-08-21T13:54:28.105Z,100832.44
2022-08-21T13:56:59.420Z,100836.59
2022-08-21T13:59:35.104Z,100830.66
2022-08-21T14:02:14.822Z,100832.47
2022-08-21T14:04:59.999Z,100821.16
2022-08-21T14:07:40.079Z,100825.13
2022-08-21T14:10:19.069Z,100819.16
2022-08-21T14:13:02.028Z,100826.94
2022-08-21T14:15:35.540Z,100820.56
2022-08-21T14:18:17.052Z,100818.00
2022-08-21T14:20:48.378Z,100835.25
2022-08-21T14:23:26.773Z,100822.75
2022-08-21T14:26:01.753Z,100825.19
2022-08-21T14:28:34.484Z,100829.53
2022-08-21T14:31:22.927Z,100822.47
2022-08-21T14:33:56.190Z,100818.88
2022-08-21T14:36:27.935Z,100827.19
2022-08-21T14:38:59.242Z,100828.63
2022-08-21T14:41:30.623Z,100830.53
2022-08-21T14:44:09.262Z,100825.56
2022-08-21T14:46:47.315Z,100838.88
2022-08-21T14:49:30.471Z,100820.47
2022-08-21T14:52:01.758Z,100825.09
2022-08-21T14:54:33.929Z,100825.69
2022-08-21T14:57:11.262Z,100815.75
2022-08-21T14:59:42.690Z,100817.06
2022-08-21T15:02:13.972Z,100827.88
2022-08-21T15:04:45.339Z,100817.81
2022-08-21T15:07:16.654Z,100826.56
2022-08-21T15:09:47.991Z,100823.41
2022-08-21T15:12:19.405Z,100829.69
2022-08-21T15:14:50.798Z,100831.09
2022-08-21T15:17:22.530Z,100824.88
2022-08-21T15:19:53.909Z,100816.19
2022-08-21T15:22:27.863Z,100824.78
2022-08-21T15:24:59.430Z,100828.66
2022-08-21T15:27:30.982Z,100829.00
2022-08-21T15:30:04.272Z,100815.19
2022-08-21T15:32:35.578Z,100814.63
2022-08-21T15:35:07.206Z,100818.41
2022-08-21T15:37:38.503Z,100827.78
2022-08-21T15:40:10.832Z,100814.56
2022-08-21T15:42:43.178Z,100807.69
2022-08-21T15:45:15.214Z,100805.38
2022-08-21T15:47:46.780Z,100809.75
2022-08-21T15:50:19.269Z,100812.38
2022-08-21T15:52:51.160Z,100809.94
2022-08-21T15:55:22.464Z,100815.25
2022-08-21T15:57:58.122Z,100817.53
2022-08-21T16:00:34.964Z,100808.56
2022-08-21T16:03:07.886Z,100801.88
2022-08-21T16:05:39.207Z,100817.78
2022-08-21T16:08:11.758Z,100808.97
2022-08-21T16:10:43.206Z,100800.66
2022-08-21T16:13:24.317Z,100807.38
2022-08-21T16:15:55.696Z,100804.13
2022-08-21T16:18:27.306Z,100802.28
2022-08-21T16:20:58.724Z,100797.59
2022-08-21T16:23:30.006Z,100811.34
2022-08-21T16:26:03.545Z,100800.09
2022-08-21T16:28:38.943Z,100792.44
2022-08-21T16:31:10.926Z,100802.47
2022-08-21T16:33:53.520Z,100798.88
2022-08-21T16:36:29.022Z,100803.63
2022-08-21T16:39:01.056Z,100796.94
2022-08-21T16:41:35.121Z,100799.19
2022-08-21T16:44:07.305Z,100806.88
2022-08-21T16:46:41.333Z,100796.97
2022-08-21T16:49:12.662Z,100805.59
2022-08-21T16:51:43.991Z,100812.66
2022-08-21T16:54:15.388Z,100805.25
2022-08-21T16:56:47.858Z,100796.47
2022-08-21T16:59:19.482Z,100806.13
2022-08-21T17:01:52.923Z,100791.69
2022-08-21T17:04:25.820Z,100795.00
2022-08-21T17:06:57.178Z,100809.34
2022-08-21T17:09:28.474Z,100802.75
2022-08-21T17:11:59.818Z,100805.31
2022-08-21T17:14:31.242Z,100803.06
2022-08-21T17:17:06.760Z,100800.84
2022-08-21T17:19:38.161Z,100804.16
2022-08-21T17:22:12.312Z,100800.66
2022-08-21T17:24:43.612Z,100816.56
2022-08-21T17:27:14.950Z,100816.38
2022-08-21T17:29:46.359Z,100814.03
2022-08-21T17:32:18.666Z,100812.75
2022-08-21T17:34:50.089Z,100803.56
2022-08-21T17:37:21.780Z,100820.09
2022-08-21T17:39:53.197Z,100818.81
2022-08-21T17:42:25.226Z,100823.94
2022-08-21T17:44:57.496Z,100814.75
2022-08-21T17:47:28.824Z,100820.97
2022-08-21T17:50:00.372Z,100812.88
2022-08-21T17:52:31.797Z,100828.59
2022-08-21T17:55:04.855Z,100828.16
2022-08-21T17:57:36.665Z,100827.84
2022-08-21T18:00:11.425Z,100826.56
2022-08-21T18:02:45.569Z,100828.34
2022-08-21T18:05:16.953Z,100836.91
2022-08-21T18:07:48.412Z,100841.13
2022-08-21T18:10:19.910Z,100845.34
2022-08-21T18:12:51.923Z,100843.38
2022-08-21T18:15:23.273Z,100851.78
2022-08-21T18:17:54.775Z,100855.22
2022-08-21T18:20:26.326Z,100866.13
2022-08-21T18:22:57.781Z,100861.84
2022-08-21T18:25:29.937Z,100855.44
2022-08-21T18:28:07.109Z,100852.06
2022-08-21T18:30:41.441Z,100863.19
2022-08-21T18:33:14.198Z,100862.44
2022-08-21T18:35:45.778Z,100882.94
2022-08-21T18:38:19.586Z,100878.31
2022-08-21T18:40:55.914Z,100871.66
2022-08-21T18:43:27.757Z,100887.69
2022-08-21T18:45:59.100Z,100885.41
2022-08-21T18:48:31.256Z,100873.44
2022-08-21T18:51:02.623Z,100884.75
2022-08-21T18:53:36.412Z,100884.34
2022-08-21T18:56:16.011Z,100886.56
2022-08-21T18:58:47.869Z,100886.53
2022-08-21T19:01:19.223Z,100892.97
2022-08-21T19:03:50.778Z,100885.53
2022-08-21T19:06:22.096Z,100897.47
2022-08-21T19:08:53.453Z,100891.66
2022-08-21T19:11:25.800Z,100894.84
2022-08-21T19:13:58.145Z,100890.78
2022-08-21T19:16:29.973Z,100898.25
2022-08-21T19:19:02.333Z,100899.50
2022-08-21T19:21:33.929Z,100904.00
2022-08-21T19:26:57.878Z,100910.03
2022-08-21T19:29:35.193Z,100906.72
2022-08-21T19:32:07.462Z,100917.81
2022-08-21T19:34:41.277Z,100904.75
2022-08-21T19:37:16.187Z,100904.13
2022-08-21T19:39:50.293Z,100917.97
2022-08-21T19:42:22.422Z,100906.66
2022-08-21T19:45:01.091Z,100908.75
2022-08-21T19:47:33.049Z,100908.19
2022-08-21T19:50:17.915Z,100910.97
2022-08-21T19:52:52.607Z,100912.84
2022-08-21T19:55:25.508Z,100914.78
2022-08-21T19:57:57.150Z,100913.03
2022-08-21T20:00:28.598Z,100911.44
2022-08-21T20:03:00.114Z,100922.84
2022-08-21T20:05:39.734Z,100932.69
2022-08-21T20:08:20.002Z,100931.72
2022-08-21T20:10:52.362Z,100922.94
2022-08-21T20:13:25.620Z,100925.41
2022-08-21T20:15:56.941Z,100927.25
2022-08-21T20:18:28.477Z,100927.16
2022-08-21T20:21:00.938Z,100919.94
2022-08-21T20:23:34.234Z,100930.63
2022-08-21T20:26:06.012Z,100931.50
2022-08-21T20:28:39.759Z,100922.38
2022-08-21T20:31:11.122Z,100929.53
2022-08-21T20:33:46.285Z,100934.66
2022-08-21T20:36:22.522Z,100931.19
2022-08-21T20:38:54.129Z,100934.22
2022-08-21T20:44:17.665Z,100945.34
2022-08-21T20:46:49.018Z,100937.03
2022-08-21T20:49:27.687Z,100934.81
2022-08-21T20:52:00.770Z,100936.19
2022-08-21T20:54:49.369Z,100942.59
2022-08-21T20:57:29.483Z,100945.63
2022-08-21T21:00:16.622Z,100942.47
2022-08-21T21:03:12.447Z,100945.41
2022-08-21T21:05:57.564Z,100946.59
2022-08-21T21:08:39.520Z,100943.25
2022-08-21T21:11:26.988Z,100948.00
2022-08-21T21:14:17.810Z,100950.91
2022-08-21T21:16:53.544Z,100948.44
2022-08-21T21:19:41.889Z,100948.91
2022-08-21T21:22:20.247Z,100941.94
2022-08-21T21:25:06.389Z,100954.59
2022-08-21T21:27:49.065Z,100959.25
2022-08-21T21:30:24.326Z,100946.97
2022-08-21T21:32:57.538Z,100951.72
2022-08-21T21:35:41.457Z,100956.28
2022-08-21T21:38:32.459Z,100954.63
2022-08-21T21:41:25.661Z,100960.22
2022-08-21T21:44:09.762Z,100960.44
2022-08-21T21:47:21.245Z,100962.56
2022-08-21T21:50:02.509Z,100974.34
2022-08-21T21:52:59.407Z,100965.53
2022-08-21T21:55:47.562Z,100968.38
2022-08-21T21:58:47.714Z,100974.72
2022-08-21T22:01:35.716Z,100969.41
2022-08-21T22:04:09.742Z,100970.28
2022-08-21T22:06:58.909Z,100955.22
2022-08-21T22:09:59.330Z,100963.22
2022-08-21T22:13:10.228Z,100965.53
2022-08-21T22:15:42.564Z,100976.16
2022-08-21T22:18:18.233Z,100974.13
2022-08-21T22:20:58.926Z,100986.47
2022-08-21T22:23:35.612Z,100966.63
2022-08-21T22:26:16.516Z,100972.72
2022-08-21T22:28:51.659Z,100976.22
2022-08-21T22:31:26.674Z,100976.16
2022-08-21T22:37:10.631Z,100976.88
2022-08-21T22:39:45.444Z,100968.00
2022-08-21T22:42:26.003Z,100970.75
2022-08-21T22:48:05.879Z,100966.63
2022-08-21T22:50:43.339Z,100967.50
2022-08-21T22:53:24.708Z,100973.03
2022-08-21T22:55:59.112Z,100963.28
2022-08-21T22:58:35.161Z,100972.38
2022-08-21T23:01:21.942Z,100969.69
2022-08-21T23:03:58.647Z,100973.19
2022-08-21T23:06:44.472Z,100973.97
2022-08-21T23:09:26.894Z,100971.22
2022-08-21T23:12:21.251Z,100970.34
2022-08-21T23:14:55.038Z,100972.16
2022-08-21T23:17:38.808Z,100971.44
2022-08-21T23:20:19.982Z,100961.03
2022-08-21T23:23:03.569Z,100966.63
2022-08-21T23:25:54.683Z,100975.25
2022-08-21T23:28:51.333Z,100978.00
2022-08-21T23:31:29.061Z,100970.22
2022-08-21T23:37:49.083Z,100975.28
2022-08-21T23:40:47.052Z,100977.81
2022-08-21T23:43:41.180Z,100958.28
2022-08-21T23:46:44.071Z,100971.28
2022-08-21T23:49:45.813Z,100962.34
2022-08-21T23:52:33.907Z,100969.59
2022-08-21T23:55:11.096Z,100964.06
2022-08-21T23:58:00.031Z,100965.72
